Current Weather

Lakehurst Maxfield Fld

Lakehurst, New Jersey (KNEL)

Report from: Monday, July 22, 2024 7:00 AM EDT
Current time: Monday, July 22, 2024 7:37 AM EDT

Nearby weather – Weather history – Daily summaries
Weather forecast

Temperature21.1°C (70.0°F)
Dew point20.0°C (68.0°F)
Winds Calm
Clouds Few clouds 1,500 ft. (457 m)
Scattered clouds 4,000 ft. (1,219 m)
Altimeter30.07 in.Hg (1018 mB)
Relative humidity93 %
Density altitude869 ft. (265 m)
Sea-level pressure101.8 kPa (1018 mB, 30.06 in.Hg)
Remarks Fully automated report
System requires maintenance
Automated weather observing station with precipitation discriminator
Raw dataKNEL 221100Z AUTO 00000KT FEW015 SCT040 21/20 A3007 RMK AO2 SLP180 T02110200 $
An error has occurred. This application may no longer respond until reloaded. Reload 🗙